METAR Data
IDs: Format: Raw Decoded Include TAF

Data at: 1006 UTC 18 Jan 2019

PAEG 180953Z AUTO 03004KT 10SM OVC060 M16/M19 A2991 RMK AO2 SLP151 T11561189 TSNO
PAEG 180853Z AUTO 02003KT 10SM SCT033 SCT045 OVC055 M16/M19 A2991 RMK AO2 SNB0755E07 SLP152 P0000 60000 T11561189 411561167 58003 TSNO
PAEG 180753Z AUTO 00000KT 9SM OVC032 M16/M18 A2991 RMK AO2 SLP154 T11561183 TSNO
PAEG 180653Z AUTO 00000KT 10SM OVC033 M16/M19 A2992 RMK AO2 SLP156 T11561189 TSNO
PAEG 180553Z AUTO 00000KT 10SM SCT032 OVC055 M16/M18 A2992 RMK AO2 SLP156 60000 I6004 T11561183 11156 21161 58003 TSNO
PAEG 180453Z AUTO 00000KT 8SM FEW029 OVC055 M16/M18 A2992 RMK AO2 SLP157 I1000 T11561183 TSNO
PAEG 180353Z AUTO 04003KT 8SM OVC030 M16/M19 A2993 RMK AO2 SNB27E39 SLP159 P0000 I1001 T11561189 TSNO
PAEG 180315Z AUTO 00000KT 8SM OVC030 M16/M18 A2992 RMK AO2 T11561183 TSNO
PAEG 180253Z AUTO 00000KT 9SM OVC029 M16/M18 A2993 RMK AO2 SLP159 I1001 I3003 T11561183 55001 TSNO
PAEG 180153Z AUTO 02003KT 9SM OVC027 M16/M18 A2993 RMK AO2 SLP158 I1002 T11561183 TSNO
PAEG 180053Z AUTO 00000KT 8SM OVC026 M16/M18 A2992 RMK AO2 SLP156 T11611178 TSNO
PAEG 180000Z AUTO 00000KT 6SM BR SCT009 OVC025 M16/M18 A2993 RMK AO2 T11611183 TSNO
PAEG 172353Z AUTO 00000KT 6SM BR BKN009 OVC024 M16/M18 A2993 RMK AO2 SLP160 I1001 I6001 T11611183 11161 21167 58007 TSNO
PAEG 172324Z AUTO 00000KT 7SM BKN009 OVC024 M16/M18 A2994 RMK AO2 T11611183 TSNO
PAEG 172253Z AUTO 00000KT 7SM BKN010 OVC022 M16/M18 A2994 RMK AO2 SLP165 T11611183 TSNO
PAEG 172233Z AUTO 00000KT 6SM BR BKN010 OVC022 M16/M18 A2995 RMK AO2 CIG 008V012 T11611183 TSNO
PAEG 172153Z AUTO 00000KT 6SM BR OVC008 M16/M18 A2995 RMK AO2 CIG 006V009 SLP167 T11611178 TSNO
PAEG 172100Z AUTO 00000KT 3SM BR BKN007 OVC012 M16/M18 A2995 RMK AO2 T11611178 TSNO
PAEG 172053Z AUTO 00000KT 2 1/2SM BR SCT005 OVC012 M16/M18 A2995 RMK AO2 SLP167 I1000 I3000 T11611183 50001 TSNO
PAEG 171953Z AUTO 00000KT 2 1/2SM BR OVC005 M17/M18 A2996 RMK AO2 SLP169 I1000 T11671183 TSNO
PAEG 171930Z AUTO 00000KT 2 1/2SM BR BKN006 OVC010 M17/M18 A2995 RMK AO2 I1000 T11671183 TSNO
PAEG 171853Z AUTO 00000KT 4SM BR BKN006 OVC012 M17/M18 A2995 RMK AO2 SLP168 I1000 T11671183 TSNO
PAEG 171824Z AUTO 00000KT 5SM BR SCT006 OVC012 M17/M18 A2995 RMK AO2 I1000 T11671183 TSNO
PAEG 171800Z AUTO 00000KT 6SM BR BKN006 OVC012 M17/M18 A2995 RMK AO2 T11671183 TSNO
PAEG 171753Z AUTO 00000KT 6SM BR SCT008 OVC013 M17/M18 A2995 RMK AO2 SLP166 I6000 T11671183 11167 21167 55000 TSNO
PAEG 171706Z AUTO 00000KT 7SM SCT009 OVC014 M17/M18 A2994 RMK AO2 T11671183 TSNO
PAEG 171653Z AUTO 00000KT 6SM BR SCT008 OVC015 M17/M18 A2994 RMK AO2 SLP163 I1000 T11671183 TSNO
PAEG 171649Z AUTO 00000KT 6SM BR SCT008 OVC015 M17/M19 A2994 RMK AO2 TSNO
PAEG 171642Z AUTO 03003KT 6SM BR SCT010 OVC014 M17/M19 A2994 RMK AO2 T11671189 TSNO
PAEG 171613Z AUTO 00000KT 8SM OVC015 M17/M19 A2994 RMK AO2 T11671189 TSNO
PAEG 171553Z AUTO 00000KT 8SM OVC013 M17/M19 A2994 RMK AO2 SLP164 I1000 T11671189 TSNO
PAEG 171453Z AUTO 00000KT 10SM OVC013 M17/M19 A2995 RMK AO2 SLP166 I1000 I3000 T11671189 57007 TSNO
PAEG 171353Z AUTO 00000KT 10SM OVC011 M17/M19 A2996 RMK AO2 SLP169 T11671189 TSNO
PAEG 171338Z AUTO 00000KT 10SM BKN013 OVC018 M17/M19 A2996 RMK AO2 T11671189 TSNO
PAEG 171326Z AUTO 00000KT 10SM OVC015 M17/M19 A2996 RMK AO2 T11671189 TSNO
PAEG 171253Z AUTO 00000KT 10SM OVC013 M17/M19 A2996 RMK AO2 SLP171 T11671189 TSNO
PAEG 171153Z AUTO 00000KT 10SM OVC013 M17/M19 A2997 RMK AO2 SLP174 I6000 T11671189 11161 21167 56003 TSNO
PAEG 171053Z AUTO 00000KT 10SM OVC012 M17/M19 A2997 RMK AO2 SLP175 T11671189 TSNO
PAEG 170953Z AUTO 00000KT 10SM OVC013 M17/M19 A2997 RMK AO2 SLP174 T11671189 TSNO
PAEG 170853Z AUTO 00000KT 9SM SCT007 OVC014 M17/M18 A2998 RMK AO2 SLP178 I1000 I3000 T11671183 411611222 56004 TSNO
PAEG 170849Z AUTO 02003KT 8SM BKN008 OVC014 M17/M18 A2998 RMK AO2 I1000 TSNO
PAEG 170826Z AUTO 00000KT 5SM BR SCT007 OVC014 M17/M18 A2998 RMK AO2 I1000 T11671183 TSNO
PAEG 170753Z AUTO 35003KT 5SM BR OVC007 M17/M18 A2999 RMK AO2 SLP181 I1000 T11671183 TSNO
PAEG 170725Z AUTO 05003KT 6SM BR BKN006 OVC013 M16/M18 A2999 RMK AO2 T11611183 TSNO
PAEG 170717Z AUTO 00000KT 5SM BR SCT006 OVC014 M16/M18 A2999 RMK AO2 T11611178 TSNO
PAEG 170653Z AUTO 00000KT 5SM BR OVC014 M16/M18 A3000 RMK AO2 SLP183 I1000 T11611183 TSNO
PAEG 170553Z AUTO 00000KT 6SM BR OVC010 M17/M18 A3000 RMK AO2 SLP184 I1000 I6000 T11671183 11167 21172 55006 TSNO
PAEG 170513Z AUTO 00000KT 5SM BR SCT007 OVC013 M17/M19 A2999 RMK AO2 T11671189 TSNO
PAEG 170453Z AUTO 00000KT 10SM FEW008 OVC017 M17/M18 A2999 RMK AO2 SLP182 T11671183 TSNO
PAEG 170353Z AUTO 00000KT 9SM FEW009 OVC017 M17/M19 A3000 RMK AO2 SLP186 T11671189 TSNO
PAEG 170308Z AUTO 00000KT 9SM SCT009 OVC017 M17/M19 A3001 RMK AO2 T11671194 TSNO
PAEG 170253Z AUTO 00000KT 10SM OVC017 M17/M19 A3002 RMK AO2 SLP192 T11721194 56006 TSNO
PAEG 170153Z AUTO 00000KT 10SM BKN016 OVC025 M17/M20 A3002 RMK AO2 SLP193 T11721200 TSNO
PAEG 170053Z AUTO 00000KT 10SM BKN020 OVC025 M17/M20 A3003 RMK AO2 SLP194 T11721200 TSNO
PAEG 162353Z AUTO 00000KT 10SM FEW019 OVC027 M17/M21 A3004 RMK AO2 SLP198 T11721206 11172 21200 58013 TSNO
PAEG 162253Z AUTO 00000KT 10SM OVC027 M18/M21 A3005 RMK AO2 SLP203 T11781211 TSNO